Time;durP1;ratioP1;P1;durP2;ratioP2;P2;SDS_P1;SDS_P2;PMS_P1;PMS_P2;Temp;Humidity;BMP_temperature;BMP_pressure;BME280_temperature;BME280_humidity;BME280_pressure;Samples;Min_cycle;Max_cycle;Signal;HPM_P1;HPM_P2
2024/01/02 00:02:19;;;;;;;5.35;1.80;;;;;;;;;;5058662;28;20049;-80
2024/01/02 00:04:45;;;;;;;6.40;1.70;;;;;;;;;;5059621;28;20081;-81
2024/01/02 00:07:12;;;;;;;5.93;1.60;;;;;;;;;;5053748;28;20040;-79
2024/01/02 00:09:38;;;;;;;;;;;;;;;;;;5057433;28;20081;-80
2024/01/02 00:12:05;;;;;;;4.97;1.48;;;;;;;;;;5033151;28;19924;-80
2024/01/02 00:14:30;;;;;;;7.03;1.75;;;;;;;;;;5051020;28;20040;-80
2024/01/02 00:16:56;;;;;;;5.90;1.40;;;;;;;;;;5045747;28;20515;-80
2024/01/02 00:19:21;;;;;;;7.97;1.85;;;;;;;;;;5063912;28;20047;-79
2024/01/02 00:21:46;;;;;;;4.18;1.60;;;;;;;;;;5054313;28;20040;-80
2024/01/02 00:24:12;;;;;;;5.72;1.90;;;;;;;;;;5055502;28;20037;-80
2024/01/02 00:27:02;;;;;;;5.38;1.45;;;;;;;;;;5053822;28;20492;-79
2024/01/02 00:29:27;;;;;;;5.03;1.50;;;;;;;;;;5013448;28;20041;-80
2024/01/02 00:31:56;;;;;;;6.50;1.40;;;;;;;;;;5011133;28;20039;-80
2024/01/02 00:34:21;;;;;;;5.07;1.40;;;;;;;;;;4990740;28;20057;-79
2024/01/02 00:36:46;;;;;;;4.28;1.45;;;;;;;;;;5032272;28;20037;-79
2024/01/02 00:39:12;;;;;;;5.18;1.38;;;;;;;;;;5026000;28;20033;-80
2024/01/02 00:41:37;;;;;;;4.43;1.50;;;;;;;;;;5011991;28;20075;-79
2024/01/02 00:44:03;;;;;;;4.72;1.60;;;;;;;;;;5028239;28;20508;-79
2024/01/02 00:46:31;;;;;;;4.38;1.20;;;;;;;;;;5019089;28;20552;-79
2024/01/02 00:48:57;;;;;;;4.10;1.35;;;;;;;;;;5025664;28;20036;-79
2024/01/02 00:51:23;;;;;;;6.93;1.38;;;;;;;;;;5005541;28;20037;-80
2024/01/02 00:53:51;;;;;;;5.72;1.67;;;;;;;;;;5000564;28;20033;-81
2024/01/02 00:56:16;;;;;;;5.22;1.45;;;;;;;;;;5004573;28;20041;-80
2024/01/02 00:58:42;;;;;;;4.90;1.52;;;;;;;;;;5006143;28;20067;-80
2024/01/02 01:01:07;;;;;;;6.20;1.52;;;;;;;;;;5027815;28;20037;-80
2024/01/02 01:03:32;;;;;;;7.03;1.67;;;;;;;;;;5017208;28;20703;-81
2024/01/02 01:05:58;;;;;;;9.52;1.92;;;;;;;;;;5033835;28;20068;-80
2024/01/02 01:08:23;;;;;;;6.20;1.75;;;;;;;;;;5055188;28;20121;-81
2024/01/02 01:10:49;;;;;;;6.25;1.45;;;;;;;;;;5053532;28;20032;-80
2024/01/02 01:13:17;;;;;;;8.00;1.60;;;;;;;;;;5054604;28;20037;-82
2024/01/02 01:15:45;;;;;;;5.70;1.45;;;;;;;;;;5048123;28;20389;-79
2024/01/02 01:18:10;;;;;;;;;;;;;;;;;;5039120;28;20029;-79
2024/01/02 01:20:38;;;;;;;5.80;1.50;;;;;;;;;;5058990;28;20378;-80
2024/01/02 01:23:06;;;;;;;5.63;1.50;;;;;;;;;;5053724;28;20037;-80
2024/01/02 01:25:32;;;;;;;6.82;1.70;;;;;;;;;;5053603;28;20396;-80
2024/01/02 01:27:58;;;;;;;8.45;1.60;;;;;;;;;;5054519;28;20032;-79
2024/01/02 01:30:24;;;;;;;10.07;1.95;;;;;;;;;;5052955;28;20300;-79
2024/01/02 01:32:49;;;;;;;8.40;1.70;;;;;;;;;;5054539;28;20112;-79
2024/01/02 01:35:14;;;;;;;10.40;2.00;;;;;;;;;;5070507;28;20493;-80
2024/01/02 01:37:40;;;;;;;9.02;1.90;;;;;;;;;;5053589;28;20056;-79
2024/01/02 01:40:06;;;;;;;8.18;1.70;;;;;;;;;;5055272;28;20371;-80
2024/01/02 01:42:31;;;;;;;7.97;1.42;;;;;;;;;;5053418;28;20039;-79
2024/01/02 01:44:56;;;;;;;11.30;1.70;;;;;;;;;;5054670;28;20384;-80
2024/01/02 01:47:24;;;;;;;7.47;1.55;;;;;;;;;;5039312;28;20032;-79
2024/01/02 01:49:51;;;;;;;;;;;;;;;;;;5035732;28;20060;-79
2024/01/02 01:52:17;;;;;;;8.40;2.15;;;;;;;;;;5054408;28;20381;-79
2024/01/02 01:54:49;;;;;;;8.30;1.60;;;;;;;;;;5038957;28;20037;-79
2024/01/02 01:57:14;;;;;;;8.27;1.60;;;;;;;;;;5047897;28;20482;-82
2024/01/02 01:59:41;;;;;;;9.20;1.45;;;;;;;;;;5041045;28;20047;-79
2024/01/02 02:02:07;;;;;;;8.52;1.92;;;;;;;;;;5045937;28;20408;-81
2024/01/02 02:04:35;;;;;;;9.10;1.70;;;;;;;;;;5054427;28;20048;-81
2024/01/02 02:07:01;;;;;;;9.35;1.80;;;;;;;;;;5056259;28;20427;-81
2024/01/02 02:09:26;;;;;;;8.77;1.88;;;;;;;;;;5064412;28;20039;-79
2024/01/02 02:11:51;;;;;;;7.72;1.95;;;;;;;;;;5059344;28;20032;-79
2024/01/02 02:14:17;;;;;;;11.65;1.80;;;;;;;;;;5052993;28;20072;-79
2024/01/02 02:16:43;;;;;;;9.18;1.83;;;;;;;;;;5046997;28;20040;-79
2024/01/02 02:19:09;;;;;;;7.30;1.60;;;;;;;;;;5055950;28;20496;-80
2024/01/02 02:21:35;;;;;;;9.38;1.88;;;;;;;;;;5049328;28;20447;-80
2024/01/02 02:24:01;;;;;;;7.07;1.58;;;;;;;;;;5054988;28;20040;-82
2024/01/02 02:26:29;;;;;;;6.82;1.85;;;;;;;;;;5049635;28;20039;-79
2024/01/02 02:28:54;;;;;;;10.18;1.95;;;;;;;;;;5038850;28;20048;-80
2024/01/02 02:31:20;;;;;;;7.43;1.80;;;;;;;;;;5051574;28;20040;-79
2024/01/02 02:33:45;;;;;;;8.52;1.80;;;;;;;;;;5063582;28;20032;-81
2024/01/02 02:36:11;;;;;;;10.38;1.90;;;;;;;;;;5050344;28;20713;-79
2024/01/02 02:38:36;;;;;;;10.85;1.83;;;;;;;;;;5045673;28;20556;-81
2024/01/02 02:41:02;;;;;;;8.02;1.60;;;;;;;;;;5042850;28;20039;-81
2024/01/02 02:43:30;;;;;;;10.43;1.90;;;;;;;;;;5044431;28;20482;-79
2024/01/02 02:45:55;;;;;;;15.50;2.65;;;;;;;;;;5037230;28;20033;-81
2024/01/02 02:48:21;;;;;;;9.77;1.88;;;;;;;;;;5055060;28;20028;-82
2024/01/02 02:50:46;;;;;;;9.57;1.75;;;;;;;;;;5041573;28;20048;-80
2024/01/02 02:53:12;;;;;;;12.27;2.10;;;;;;;;;;5053874;28;20036;-79
2024/01/02 02:55:37;;;;;;;8.88;1.63;;;;;;;;;;5055590;28;20028;-80
2024/01/02 02:58:02;;;;;;;12.05;2.20;;;;;;;;;;5053476;28;20037;-80
2024/01/02 03:00:33;;;;;;;13.98;1.98;;;;;;;;;;5031631;28;20090;-80
2024/01/02 03:03:04;;;;;;;8.60;2.17;;;;;;;;;;5051583;28;20048;-80
2024/01/02 03:05:32;;;;;;;8.43;1.67;;;;;;;;;;5045787;28;20211;-80
2024/01/02 03:08:00;;;;;;;;;;;;;;;;;;5030559;28;20042;-80
2024/01/02 03:10:25;;;;;;;13.45;2.13;;;;;;;;;;5052795;28;19917;-82
2024/01/02 03:12:51;;;;;;;11.20;2.05;;;;;;;;;;5036058;28;20039;-81
2024/01/02 03:15:19;;;;;;;13.98;1.70;;;;;;;;;;5039798;28;20045;-80
2024/01/02 03:17:45;;;;;;;12.77;2.63;;;;;;;;;;5050711;28;20041;-80
2024/01/02 03:20:10;;;;;;;10.98;2.65;;;;;;;;;;5057521;28;20066;-81
2024/01/02 03:22:36;;;;;;;8.48;1.85;;;;;;;;;;5054685;28;20476;-80
2024/01/02 03:25:01;;;;;;;11.65;2.13;;;;;;;;;;5073625;28;20111;-80
2024/01/02 03:27:26;;;;;;;11.60;2.25;;;;;;;;;;5054969;28;20029;-80
2024/01/02 03:29:52;;;;;;;9.93;2.08;;;;;;;;;;5057864;28;20415;-79
2024/01/02 03:32:17;;;;;;;14.82;2.38;;;;;;;;;;5060043;28;20036;-80
2024/01/02 03:34:43;;;;;;;10.63;1.90;;;;;;;;;;5053450;28;20060;-79
2024/01/02 03:37:08;;;;;;;12.52;2.15;;;;;;;;;;5046076;28;20399;-79
2024/01/02 03:39:36;;;;;;;10.55;1.90;;;;;;;;;;5058893;28;20041;-79
2024/01/02 03:42:05;;;;;;;14.07;2.95;;;;;;;;;;5064389;28;20585;-79
2024/01/02 03:44:30;;;;;;;9.75;2.08;;;;;;;;;;5043677;28;20029;-80
2024/01/02 03:46:56;;;;;;;12.35;2.47;;;;;;;;;;5058587;28;20032;-81
2024/01/02 03:49:25;;;;;;;12.48;2.63;;;;;;;;;;5070563;28;20033;-80
2024/01/02 03:51:56;;;;;;;12.05;2.15;;;;;;;;;;5057201;28;20043;-80
2024/01/02 03:54:21;;;;;;;14.77;2.70;;;;;;;;;;5053999;28;20093;-79
2024/01/02 03:56:46;;;;;;;12.32;2.08;;;;;;;;;;5069743;28;20033;-81
2024/01/02 03:59:12;;;;;;;9.88;2.22;;;;;;;;;;5056700;28;20044;-81
2024/01/02 04:01:49;;;;;;;10.60;1.83;;;;;;;;;;5054931;28;20071;-78
2024/01/02 04:04:14;;;;;;;11.98;2.05;;;;;;;;;;5053385;28;20431;-80
2024/01/02 04:06:40;;;;;;;9.38;1.80;;;;;;;;;;5056214;28;20037;-79
2024/01/02 04:09:10;;;;;;;13.82;2.20;;;;;;;;;;5044176;28;20391;-80
2024/01/02 04:11:35;;;;;;;12.60;2.50;;;;;;;;;;5040662;28;20048;-80
2024/01/02 04:14:00;;;;;;;10.52;2.30;;;;;;;;;;5053774;28;20037;-79
2024/01/02 04:16:31;;;;;;;14.40;2.13;;;;;;;;;;5046942;28;21518;-78
2024/01/02 04:18:56;;;;;;;12.98;2.08;;;;;;;;;;5052546;28;20430;-79
2024/01/02 04:21:22;;;;;;;9.63;2.30;;;;;;;;;;5064959;28;20041;-82
2024/01/02 04:23:50;;;;;;;6.50;1.77;;;;;;;;;;5020574;28;20059;-79
2024/01/02 04:26:15;;;;;;;8.30;2.00;;;;;;;;;;5062730;28;20395;-80
2024/01/02 04:28:41;;;;;;;13.68;2.33;;;;;;;;;;5055257;28;20025;-82
2024/01/02 04:31:08;;;;;;;10.98;2.15;;;;;;;;;;5053148;28;20098;-79
2024/01/02 04:33:36;;;;;;;9.97;2.47;;;;;;;;;;5057598;28;20094;-78
2024/01/02 04:36:02;;;;;;;8.90;1.63;;;;;;;;;;5055832;28;20124;-80
2024/01/02 04:38:30;;;;;;;13.32;2.33;;;;;;;;;;5073227;28;20572;-80
2024/01/02 04:40:57;;;;;;;9.35;2.20;;;;;;;;;;5055828;28;20065;-80
2024/01/02 04:43:24;;;;;;;8.05;2.05;;;;;;;;;;5056964;28;20051;-81
2024/01/02 04:45:50;;;;;;;;;;;;;;;;;;5052700;28;20094;-80
2024/01/02 04:48:15;;;;;;;11.48;2.20;;;;;;;;;;5052794;28;20388;-80
2024/01/02 04:50:41;;;;;;;8.65;1.92;;;;;;;;;;5046211;28;20109;-80
2024/01/02 04:53:06;;;;;;;9.45;1.80;;;;;;;;;;5051603;28;20049;-80
2024/01/02 04:55:31;;;;;;;8.95;2.15;;;;;;;;;;5066093;28;20449;-80
2024/01/02 04:57:57;;;;;;;9.38;2.00;;;;;;;;;;5045676;28;20060;-80
2024/01/02 05:00:24;;;;;;;7.38;2.05;;;;;;;;;;5042659;28;20121;-81
2024/01/02 05:02:50;;;;;;;8.77;1.70;;;;;;;;;;5052820;28;20028;-81
2024/01/02 05:05:15;;;;;;;10.82;2.17;;;;;;;;;;5058255;28;20562;-80
2024/01/02 05:07:40;;;;;;;11.85;2.28;;;;;;;;;;5054848;28;20390;-80
2024/01/02 05:10:06;;;;;;;8.23;1.58;;;;;;;;;;5054836;28;20108;-80
2024/01/02 05:12:31;;;;;;;10.13;1.95;;;;;;;;;;5053299;28;20041;-81
2024/01/02 05:14:57;;;;;;;9.13;1.98;;;;;;;;;;5053744;28;20110;-80
2024/01/02 05:17:22;;;;;;;8.70;1.88;;;;;;;;;;5051550;28;20029;-80
2024/01/02 05:19:47;;;;;;;11.00;2.13;;;;;;;;;;5068311;28;20029;-80
2024/01/02 05:22:13;;;;;;;8.75;1.55;;;;;;;;;;5040354;28;20542;-80
2024/01/02 05:24:41;;;;;;;10.38;2.10;;;;;;;;;;5056890;28;20527;-79
2024/01/02 05:27:06;;;;;;;8.75;2.58;;;;;;;;;;5053898;28;20033;-79
2024/01/02 05:29:42;;;;;;;9.75;2.00;;;;;;;;;;5034874;28;20035;-79
2024/01/02 05:32:07;;;;;;;13.25;2.28;;;;;;;;;;5050925;28;20048;-82
2024/01/02 05:34:32;;;;;;;8.65;1.98;;;;;;;;;;5051539;28;20060;-81
2024/01/02 05:37:00;;;;;;;9.95;1.80;;;;;;;;;;5051478;28;20593;-81
2024/01/02 05:39:26;;;;;;;9.13;1.85;;;;;;;;;;5049117;28;20048;-80
2024/01/02 05:41:51;;;;;;;9.20;1.58;;;;;;;;;;5043449;28;20767;-80
2024/01/02 05:44:19;;;;;;;8.82;2.47;;;;;;;;;;5045718;28;20076;-80
2024/01/02 05:46:44;;;;;;;8.55;1.58;;;;;;;;;;5055169;28;20131;-82
2024/01/02 05:49:13;;;;;;;8.88;2.08;;;;;;;;;;5042926;28;20115;-79
2024/01/02 05:51:41;;;;;;;8.02;1.80;;;;;;;;;;5061910;28;20091;-80
2024/01/02 05:54:06;;;;;;;9.32;1.90;;;;;;;;;;5052602;28;20045;-81
2024/01/02 05:56:36;;;;;;;7.68;2.00;;;;;;;;;;5042131;28;20478;-80
2024/01/02 05:59:02;;;;;;;10.48;2.20;;;;;;;;;;5050443;28;20497;-80
2024/01/02 06:01:30;;;;;;;12.45;2.17;;;;;;;;;;5058689;28;20119;-80
2024/01/02 06:03:55;;;;;;;7.88;1.90;;;;;;;;;;5044675;28;20040;-80
2024/01/02 06:06:24;;;;;;;10.80;2.00;;;;;;;;;;5062315;28;20373;-79
2024/01/02 06:08:52;;;;;;;9.38;1.88;;;;;;;;;;5062313;28;20036;-81
2024/01/02 06:11:17;;;;;;;6.00;1.67;;;;;;;;;;5045731;28;20043;-80
2024/01/02 06:13:42;;;;;;;8.38;1.90;;;;;;;;;;5051032;28;20029;-80
2024/01/02 06:16:11;;;;;;;8.30;1.90;;;;;;;;;;5054167;28;20041;-81
2024/01/02 06:18:37;;;;;;;10.23;1.92;;;;;;;;;;5060633;28;20547;-81
2024/01/02 06:21:04;;;;;;;10.93;1.77;;;;;;;;;;5055309;28;20074;-81
2024/01/02 06:23:31;;;;;;;9.23;1.75;;;;;;;;;;5039484;28;20519;-81
2024/01/02 06:25:57;;;;;;;7.78;1.80;;;;;;;;;;5055579;28;20110;-81
2024/01/02 06:28:27;;;;;;;7.90;1.70;;;;;;;;;;5068412;28;20078;-80
2024/01/02 06:30:53;;;;;;;9.82;1.70;;;;;;;;;;5055102;28;20051;-80
2024/01/02 06:33:18;;;;;;;8.00;1.77;;;;;;;;;;5054387;28;20053;-81
2024/01/02 06:35:46;;;;;;;9.57;2.00;;;;;;;;;;5058329;28;20415;-81
2024/01/02 06:38:11;;;;;;;9.30;2.08;;;;;;;;;;5050396;28;20041;-82
2024/01/02 06:40:37;;;;;;;7.22;1.65;;;;;;;;;;5061985;28;20535;-81
2024/01/02 06:43:03;;;;;;;8.57;1.70;;;;;;;;;;5059669;28;20043;-82
2024/01/02 06:45:28;;;;;;;7.45;1.70;;;;;;;;;;5049534;28;20049;-81
2024/01/02 06:47:55;;;;;;;7.55;1.75;;;;;;;;;;5037069;28;20062;-81
2024/01/02 06:50:21;;;;;;;11.95;2.30;;;;;;;;;;5055996;28;20044;-81
2024/01/02 06:52:46;;;;;;;8.30;1.85;;;;;;;;;;5053566;28;20033;-82
2024/01/02 06:55:12;;;;;;;9.27;1.85;;;;;;;;;;5069906;28;20036;-80
2024/01/02 06:57:38;;;;;;;7.57;2.00;;;;;;;;;;5061927;28;20126;-81
2024/01/02 07:00:05;;;;;;;8.90;2.13;;;;;;;;;;5058930;28;20142;-80
2024/01/02 07:02:32;;;;;;;9.37;1.97;;;;;;;;;;5057781;28;20056;-82
2024/01/02 07:04:58;;;;;;;7.72;1.90;;;;;;;;;;5048629;28;20523;-81
2024/01/02 07:07:23;;;;;;;12.65;2.15;;;;;;;;;;5065438;28;20044;-81
2024/01/02 07:09:48;;;;;;;9.57;1.75;;;;;;;;;;5048780;28;20067;-80
2024/01/02 07:12:14;;;;;;;10.52;2.50;;;;;;;;;;5048425;28;20031;-81
2024/01/02 07:14:41;;;;;;;8.75;2.30;;;;;;;;;;5058233;28;20036;-81
2024/01/02 07:17:07;;;;;;;13.93;2.50;;;;;;;;;;5058842;28;20412;-80
2024/01/02 07:19:33;;;;;;;6.47;2.25;;;;;;;;;;5055354;28;20044;-82
2024/01/02 07:21:58;;;;;;;6.50;2.08;;;;;;;;;;5054462;28;20041;-81
2024/01/02 07:24:24;;;;;;;8.60;2.42;;;;;;;;;;5033445;28;20527;-81
2024/01/02 07:26:49;;;;;;;6.40;2.05;;;;;;;;;;5039835;28;20029;-80
2024/01/02 07:29:14;;;;;;;8.63;2.25;;;;;;;;;;5046964;28;20106;-81
2024/01/02 07:31:54;;;;;;;6.43;2.13;;;;;;;;;;5042874;28;20040;-80
2024/01/02 07:34:20;;;;;;;7.75;1.90;;;;;;;;;;5047291;28;20170;-80
2024/01/02 07:36:47;;;;;;;8.73;1.80;;;;;;;;;;5047250;28;20585;-80
2024/01/02 07:39:15;;;;;;;8.05;2.03;;;;;;;;;;5057045;28;20058;-78
2024/01/02 07:41:44;;;;;;;5.85;1.60;;;;;;;;;;5042728;28;20514;-80
2024/01/02 07:44:10;;;;;;;6.53;1.80;;;;;;;;;;5065079;28;20043;-79
2024/01/02 07:46:35;;;;;;;8.27;2.42;;;;;;;;;;5057390;28;20040;-80
2024/01/02 07:49:01;;;;;;;6.85;1.90;;;;;;;;;;5055049;28;20040;-82
2024/01/02 07:51:26;;;;;;;8.85;1.90;;;;;;;;;;5051271;28;20032;-79
2024/01/02 07:53:51;;;;;;;9.93;2.10;;;;;;;;;;5042885;28;20123;-78
2024/01/02 07:56:19;;;;;;;7.13;1.88;;;;;;;;;;5055834;28;20089;-80
2024/01/02 07:58:47;;;;;;;5.80;1.80;;;;;;;;;;5072694;28;20044;-80
2024/01/02 08:01:13;;;;;;;8.80;2.20;;;;;;;;;;5027911;28;20425;-80
2024/01/02 08:03:41;;;;;;;10.05;2.45;;;;;;;;;;5046720;28;20202;-79
2024/01/02 08:06:06;;;;;;;10.75;2.38;;;;;;;;;;5056531;28;20040;-79
2024/01/02 08:08:32;;;;;;;6.15;1.50;;;;;;;;;;5056871;28;20044;-79
2024/01/02 08:10:57;;;;;;;8.50;1.83;;;;;;;;;;5058276;28;20475;-80
2024/01/02 08:13:33;;;;;;;;;;;;;;;;;;;;;
2024/01/02 08:15:58;;;;;;;10.05;2.28;;;;;;;;;;5055544;28;20037;-80
2024/01/02 08:18:24;;;;;;;9.88;2.13;;;;;;;;;;5048403;28;20032;-82
2024/01/02 08:20:49;;;;;;;8.57;2.17;;;;;;;;;;5055139;28;20036;-79
2024/01/02 08:23:14;;;;;;;7.07;1.70;;;;;;;;;;5056965;28;20043;-79
2024/01/02 08:25:43;;;;;;;7.43;1.73;;;;;;;;;;5043519;28;20108;-78
2024/01/02 08:28:09;;;;;;;5.28;1.45;;;;;;;;;;5054105;28;20039;-81
2024/01/02 08:30:35;;;;;;;5.60;1.35;;;;;;;;;;5056117;28;20115;-80
2024/01/02 08:33:00;;;;;;;9.05;1.55;;;;;;;;;;5050724;28;20522;-82
2024/01/02 08:35:25;;;;;;;6.88;1.55;;;;;;;;;;5054578;28;20460;-80
2024/01/02 08:37:51;;;;;;;6.95;1.63;;;;;;;;;;5056266;28;20029;-81
2024/01/02 08:40:16;;;;;;;7.47;2.00;;;;;;;;;;5057240;28;20387;-81
2024/01/02 08:42:42;;;;;;;11.80;2.20;;;;;;;;;;5056697;28;20043;-81
2024/01/02 08:45:10;;;;;;;8.07;1.65;;;;;;;;;;5054373;28;20044;-80
2024/01/02 08:47:38;;;;;;;9.57;1.77;;;;;;;;;;5057673;28;20041;-80
2024/01/02 08:50:05;;;;;;;6.22;1.95;;;;;;;;;;5045814;28;20458;-80
2024/01/02 08:52:30;;;;;;;6.05;1.55;;;;;;;;;;5046716;28;20040;-80
2024/01/02 08:54:56;;;;;;;7.07;2.03;;;;;;;;;;5040671;28;20138;-80
2024/01/02 08:57:21;;;;;;;8.50;1.65;;;;;;;;;;5045424;28;20711;-81
2024/01/02 08:59:47;;;;;;;7.75;2.20;;;;;;;;;;5031028;28;20043;-82
2024/01/02 09:02:12;;;;;;;9.95;1.90;;;;;;;;;;5037695;28;20109;-79
2024/01/02 09:04:37;;;;;;;6.25;1.80;;;;;;;;;;5071793;28;20037;-81
2024/01/02 09:07:03;;;;;;;9.05;1.83;;;;;;;;;;5062727;28;20039;-80
2024/01/02 09:09:28;;;;;;;8.23;2.05;;;;;;;;;;5071318;28;20044;-81
2024/01/02 09:11:56;;;;;;;5.68;1.85;;;;;;;;;;5053963;28;20029;-80
2024/01/02 09:14:21;;;;;;;9.77;2.35;;;;;;;;;;5049515;28;20040;-79
2024/01/02 09:16:49;;;;;;;7.95;1.70;;;;;;;;;;5062459;28;20033;-80
2024/01/02 09:19:14;;;;;;;7.80;1.98;;;;;;;;;;5058307;28;20033;-80
2024/01/02 09:21:44;;;;;;;4.65;1.23;;;;;;;;;;5038714;28;20474;-81
2024/01/02 09:24:11;;;;;;;7.18;1.70;;;;;;;;;;5039484;28;20052;-81
2024/01/02 09:26:44;;;;;;;10.17;1.80;;;;;;;;;;5059860;28;20039;-81
2024/01/02 09:29:14;;;;;;;7.20;1.77;;;;;;;;;;5063608;28;20025;-80
2024/01/02 09:31:43;;;;;;;6.40;1.80;;;;;;;;;;5041759;28;20083;-81
2024/01/02 09:34:09;;;;;;;7.43;1.73;;;;;;;;;;5054420;28;20542;-81
2024/01/02 09:36:35;;;;;;;4.87;1.77;;;;;;;;;;5055309;28;20064;-81
2024/01/02 09:39:01;;;;;;;10.10;1.92;;;;;;;;;;5045961;28;20868;-80
2024/01/02 09:41:40;;;;;;;6.55;2.03;;;;;;;;;;5047170;28;20036;-80
2024/01/02 09:44:36;;;;;;;6.68;1.75;;;;;;;;;;5053028;28;21552;-80
2024/01/02 09:47:13;;;;;;;6.55;2.13;;;;;;;;;;5032619;28;20060;-81
2024/01/02 09:50:10;;;;;;;6.25;1.95;;;;;;;;;;5041981;28;20054;-83
2024/01/02 09:52:49;;;;;;;5.20;2.50;;;;;;;;;;5053282;28;20064;-81
2024/01/02 09:55:14;;;;;;;5.78;2.25;;;;;;;;;;5055465;28;20489;-81
2024/01/02 09:57:48;;;;;;;9.35;2.05;;;;;;;;;;5055562;28;20043;-81
2024/01/02 10:00:33;;;;;;;10.02;2.10;;;;;;;;;;5057464;28;20459;-80
2024/01/02 10:03:24;;;;;;;6.72;2.58;;;;;;;;;;5055382;28;20067;-82
2024/01/02 10:05:58;;;;;;;8.95;2.65;;;;;;;;;;5051911;28;20033;-75
2024/01/02 10:08:38;;;;;;;7.40;2.17;;;;;;;;;;5054522;28;20045;-76
2024/01/02 10:11:14;;;;;;;5.60;1.95;;;;;;;;;;5038148;28;20035;-76
2024/01/02 10:13:45;;;;;;;8.70;2.05;;;;;;;;;;5046303;28;20116;-75
2024/01/02 10:16:27;;;;;;;8.02;2.28;;;;;;;;;;5054330;28;20036;-77
2024/01/02 10:19:23;;;;;;;5.38;2.10;;;;;;;;;;5068807;28;20051;-78
2024/01/02 10:22:31;;;;;;;9.13;2.47;;;;;;;;;;5056169;28;20033;-78
2024/01/02 10:24:56;;;;;;;5.55;2.40;;;;;;;;;;5017700;28;20051;-78
2024/01/02 10:27:47;;;;;;;7.47;2.25;;;;;;;;;;5033967;28;20100;-77
2024/01/02 10:30:15;;;;;;;7.45;2.17;;;;;;;;;;5024683;28;20037;-77
2024/01/02 10:32:47;;;;;;;7.15;2.50;;;;;;;;;;5042421;28;20060;-78
2024/01/02 10:35:17;;;;;;;7.03;2.08;;;;;;;;;;5026533;28;20508;-78
2024/01/02 10:37:55;;;;;;;5.95;2.28;;;;;;;;;;5025452;28;20519;-80
2024/01/02 10:40:23;;;;;;;5.63;2.25;;;;;;;;;;5025343;28;20524;-78
2024/01/02 10:43:07;;;;;;;6.95;2.28;;;;;;;;;;5024178;28;20033;-76
2024/01/02 10:45:50;;;;;;;6.68;2.03;;;;;;;;;;5025499;28;20068;-76
2024/01/02 10:48:49;;;;;;;6.10;2.20;;;;;;;;;;5025323;28;20193;-77
2024/01/02 10:51:23;;;;;;;9.35;2.67;;;;;;;;;;5017082;28;21014;-76
2024/01/02 10:53:55;;;;;;;6.30;2.58;;;;;;;;;;5007609;28;20065;-77
2024/01/02 10:56:33;;;;;;;8.48;3.00;;;;;;;;;;5031946;28;20144;-77
2024/01/02 10:59:37;;;;;;;7.38;3.05;;;;;;;;;;5026253;28;20033;-76
2024/01/02 11:02:25;;;;;;;7.07;2.53;;;;;;;;;;5045224;28;20037;-77
2024/01/02 11:05:19;;;;;;;6.65;2.63;;;;;;;;;;5046213;28;20063;-77
2024/01/02 11:07:49;;;;;;;8.45;2.70;;;;;;;;;;5015196;28;20041;-78
2024/01/02 11:10:17;;;;;;;6.30;2.47;;;;;;;;;;5023956;28;20031;-80
2024/01/02 11:12:52;;;;;;;9.23;2.90;;;;;;;;;;5024588;28;20033;-80
2024/01/02 11:15:19;;;;;;;6.93;2.75;;;;;;;;;;5024538;28;20805;-81
2024/01/02 11:17:45;;;;;;;8.30;2.63;;;;;;;;;;5018785;28;20034;-79
2024/01/02 11:20:14;;;;;;;8.07;2.20;;;;;;;;;;5018595;28;20647;-81
2024/01/02 11:23:01;;;;;;;6.13;2.53;;;;;;;;;;5034361;28;20048;-80
2024/01/02 11:25:34;;;;;;;;;;;;;;;;;;5014682;28;20530;-81
2024/01/02 11:28:02;;;;;;;5.15;2.53;;;;;;;;;;5015789;28;19920;-82
2024/01/02 11:30:40;;;;;;;6.18;2.50;;;;;;;;;;5027379;28;20447;-81
2024/01/02 11:33:10;;;;;;;;;;;;;;;;;;5021564;28;20674;-80
2024/01/02 11:36:07;;;;;;;5.88;2.70;;;;;;;;;;5021524;28;19913;-82
2024/01/02 11:38:40;;;;;;;6.50;2.67;;;;;;;;;;5002555;28;20405;-80
2024/01/02 11:41:31;;;;;;;5.72;2.78;;;;;;;;;;5021218;28;20055;-79
2024/01/02 11:43:59;;;;;;;6.38;2.90;;;;;;;;;;5016549;28;20037;-82
2024/01/02 11:46:30;;;;;;;6.93;2.85;;;;;;;;;;5039463;28;20111;-82
2024/01/02 11:49:22;;;;;;;5.82;3.00;;;;;;;;;;5049078;28;20032;-81
2024/01/02 11:51:51;;;;;;;9.25;3.30;;;;;;;;;;5055279;28;20068;-82
2024/01/02 11:54:28;;;;;;;6.60;3.08;;;;;;;;;;5071558;28;20512;-82
2024/01/02 11:56:54;;;;;;;5.97;3.00;;;;;;;;;;5091223;28;20071;-81
2024/01/02 11:59:42;;;;;;;6.28;3.00;;;;;;;;;;5070429;28;20036;-82
2024/01/02 12:02:50;;;;;;;5.50;2.90;;;;;;;;;;5064067;28;20111;-82
2024/01/02 12:05:29;;;;;;;8.85;3.05;;;;;;;;;;5038808;28;20044;-80
2024/01/02 12:07:57;;;;;;;5.00;2.75;;;;;;;;;;5062886;28;20238;-81
2024/01/02 12:10:29;;;;;;;7.53;3.20;;;;;;;;;;5051173;28;20077;-81
2024/01/02 12:13:28;;;;;;;6.85;2.85;;;;;;;;;;5072728;28;20028;-81
2024/01/02 12:15:55;;;;;;;5.78;2.97;;;;;;;;;;5047576;28;20151;-80
2024/01/02 12:18:23;;;;;;;8.47;4.20;;;;;;;;;;5057263;28;20044;-80
2024/01/02 12:24:34;;;;;;;5.50;3.33;;;;;;;;;;5038873;28;20649;-82
2024/01/02 12:27:03;;;;;;;6.75;3.38;;;;;;;;;;5590216;23;20057;-87
2024/01/02 12:29:38;;;;;;;5.85;3.08;;;;;;;;;;5033142;28;20047;-89
2024/01/02 12:32:30;;;;;;;6.72;3.22;;;;;;;;;;5008878;28;20037;-87
2024/01/02 12:35:09;;;;;;;5.78;3.10;;;;;;;;;;5037481;28;20134;-87
2024/01/02 12:38:07;;;;;;;7.85;2.75;;;;;;;;;;5037100;28;20124;-88
2024/01/02 12:40:37;;;;;;;5.82;2.90;;;;;;;;;;5023590;28;20395;-89
2024/01/02 12:43:07;;;;;;;7.10;3.92;;;;;;;;;;5038918;28;20079;-88
2024/01/02 12:45:34;;;;;;;6.85;3.22;;;;;;;;;;5033463;28;20036;-90
2024/01/02 12:48:08;;;;;;;5.35;2.80;;;;;;;;;;5030323;28;20032;-88
2024/01/02 12:50:36;;;;;;;6.88;2.90;;;;;;;;;;5032103;28;20111;-90
2024/01/02 12:53:09;;;;;;;5.47;2.45;;;;;;;;;;5015402;28;20033;-86
2024/01/02 12:55:46;;;;;;;6.35;2.72;;;;;;;;;;5035899;28;20095;-86
2024/01/02 12:58:12;;;;;;;5.72;2.50;;;;;;;;;;5023028;28;20506;-87
2024/01/02 13:00:39;;;;;;;6.40;2.70;;;;;;;;;;5019206;28;20566;-88
2024/01/02 13:03:05;;;;;;;5.93;2.90;;;;;;;;;;5021488;28;20033;-86
2024/01/02 13:05:35;;;;;;;8.13;2.70;;;;;;;;;;5021535;28;20124;-87
2024/01/02 13:08:07;;;;;;;4.95;2.55;;;;;;;;;;5034633;28;20523;-87
2024/01/02 13:10:33;;;;;;;5.30;2.58;;;;;;;;;;5038910;28;20109;-87
2024/01/02 13:13:00;;;;;;;5.20;2.65;;;;;;;;;;5047051;28;20040;-87
2024/01/02 13:15:29;;;;;;;6.28;2.85;;;;;;;;;;5036569;28;20044;-88
2024/01/02 13:18:03;;;;;;;6.10;2.67;;;;;;;;;;5012992;28;20420;-87
2024/01/02 13:20:30;;;;;;;6.22;3.13;;;;;;;;;;5023762;28;20406;-88
2024/01/02 13:22:58;;;;;;;4.93;2.30;;;;;;;;;;5006135;28;20033;-88
2024/01/02 13:25:25;;;;;;;6.05;2.95;;;;;;;;;;5020027;28;20037;-87
2024/01/02 13:27:55;;;;;;;5.73;3.00;;;;;;;;;;5038309;28;20095;-86
2024/01/02 13:30:41;;;;;;;5.90;2.67;;;;;;;;;;5032686;28;20334;-88
2024/01/02 13:33:10;;;;;;;6.47;2.72;;;;;;;;;;5022942;28;20044;-87
2024/01/02 13:35:35;;;;;;;4.93;2.83;;;;;;;;;;5034909;28;20095;-86
2024/01/02 13:38:04;;;;;;;5.25;2.67;;;;;;;;;;5039169;28;20033;-87
2024/01/02 13:40:32;;;;;;;5.88;2.80;;;;;;;;;;5022639;28;20146;-87
2024/01/02 13:43:03;;;;;;;5.18;2.67;;;;;;;;;;5043432;28;20037;-87
2024/01/02 13:45:32;;;;;;;4.90;2.70;;;;;;;;;;4988141;28;20055;-87
2024/01/02 13:48:38;;;;;;;4.18;2.50;;;;;;;;;;5010148;28;20033;-85
2024/01/02 13:51:04;;;;;;;5.32;2.67;;;;;;;;;;5026131;28;20120;-87
2024/01/02 13:53:32;;;;;;;5.05;2.45;;;;;;;;;;5016358;28;20599;-87
2024/01/02 13:56:05;;;;;;;5.10;2.50;;;;;;;;;;4991304;28;20052;-87
2024/01/02 13:58:31;;;;;;;6.43;2.55;;;;;;;;;;5000220;28;20033;-87
2024/01/02 14:01:03;;;;;;;6.28;2.72;;;;;;;;;;4996579;28;20397;-88
2024/01/02 14:03:30;;;;;;;7.68;2.80;;;;;;;;;;5033487;28;20033;-87
2024/01/02 14:05:57;;;;;;;5.23;2.60;;;;;;;;;;4992236;28;20059;-87
2024/01/02 14:08:26;;;;;;;5.28;2.72;;;;;;;;;;5025104;28;20112;-86
2024/01/02 14:10:51;;;;;;;5.45;3.08;;;;;;;;;;5036862;28;20037;-87
2024/01/02 14:13:31;;;;;;;7.13;2.70;;;;;;;;;;5021860;28;20456;-88
2024/01/02 14:16:06;;;;;;;4.43;2.70;;;;;;;;;;5029011;28;20500;-87
2024/01/02 14:18:41;;;;;;;6.00;3.05;;;;;;;;;;4998755;28;20032;-87
2024/01/02 14:21:19;;;;;;;5.50;2.88;;;;;;;;;;5033618;28;20064;-87
2024/01/02 14:24:04;;;;;;;7.25;2.85;;;;;;;;;;5006205;28;20033;-87
2024/01/02 14:27:04;;;;;;;4.60;2.50;;;;;;;;;;5016442;28;20033;-87
2024/01/02 14:29:36;;;;;;;5.88;3.08;;;;;;;;;;5023624;28;20089;-86
2024/01/02 14:32:37;;;;;;;5.72;2.90;;;;;;;;;;5020587;28;20037;-86
2024/01/02 14:35:18;;;;;;;6.25;2.70;;;;;;;;;;5023957;28;20034;-87
2024/01/02 14:38:30;;;;;;;5.78;2.85;;;;;;;;;;5022722;28;20455;-87
2024/01/02 14:41:24;;;;;;;5.70;3.00;;;;;;;;;;4936782;28;20034;-87
2024/01/02 14:44:31;;;;;;;6.35;3.15;;;;;;;;;;5038321;28;20036;-87
2024/01/02 14:47:20;;;;;;;5.82;3.10;;;;;;;;;;4978177;28;20434;-86
2024/01/02 14:49:51;;;;;;;7.15;3.45;;;;;;;;;;4974657;28;20037;-86
2024/01/02 14:52:35;;;;;;;5.03;3.25;;;;;;;;;;4958150;28;20497;-87
2024/01/02 14:55:34;;;;;;;5.32;3.15;;;;;;;;;;4969720;28;20444;-87
2024/01/02 14:58:04;;;;;;;5.70;3.42;;;;;;;;;;4947833;28;20043;-86
2024/01/02 15:00:35;;;;;;;6.97;3.90;;;;;;;;;;4950842;28;20501;-87
2024/01/02 15:03:18;;;;;;;7.28;3.47;;;;;;;;;;4953036;28;20034;-88
2024/01/02 15:06:11;;;;;;;6.10;3.63;;;;;;;;;;4961231;28;20442;-87